Aviation Digital Data Service (ADDS)

Output produced by METARs form (1320 UTC 05 July 2015)
found at http://aviationweather.gov/adds/metars/
 
KRUT 051120Z 0512/0612 29006KT P6SM SCT050 
     FM060000 13004KT P6SM SKC 
     FM060800 13005KT 4SM BR SKC AMD LTD TO CLD VIS AND WIND